Time;durP1;ratioP1;P1;durP2;ratioP2;P2;SDS_P1;SDS_P2;PMS_P1;PMS_P2;Temp;Humidity;BMP_temperature;BMP_pressure;BME280_temperature;BME280_humidity;BME280_pressure;Samples;Min_cycle;Max_cycle;Signal;HPM_P1;HPM_P2
2021/12/19 00:03:55;;;;;;;32.13;14.17;;;8.10;84.90;;;;;;5053730;28;20424;-84
2021/12/19 00:09:06;;;;;;;33.33;13.55;;;8.30;84.90;;;;;;5038813;28;20192;-84
2021/12/19 00:11:32;;;;;;;32.83;14.77;;;8.30;84.70;;;;;;5026760;28;20185;-84
2021/12/19 00:13:59;;;;;;;37.65;15.68;;;8.20;84.60;;;;;;5036669;28;20276;-85
2021/12/19 00:16:25;;;;;;;32.30;13.80;;;8.40;84.50;;;;;;5046106;28;20683;-85
2021/12/19 00:18:52;;;;;;;37.25;15.45;;;8.40;84.50;;;;;;5038261;28;20202;-84
2021/12/19 00:21:21;;;;;;;36.00;15.10;;;8.50;84.40;;;;;;5015435;28;20194;-84
2021/12/19 00:23:48;;;;;;;39.70;16.95;;;8.60;84.20;;;;;;5048015;28;20205;-84
2021/12/19 00:26:16;;;;;;;35.00;13.68;;;8.60;84.10;;;;;;5046254;28;20273;-84
2021/12/19 00:28:43;;;;;;;28.10;13.35;;;8.30;84.30;;;;;;5048106;28;20174;-83
2021/12/19 00:31:09;;;;;;;29.35;12.40;;;8.20;84.80;;;;;;5045682;28;20202;-84
2021/12/19 00:33:37;;;;;;;24.40;11.82;;;8.00;85.00;;;;;;5043513;28;20178;-85
2021/12/19 00:36:04;;;;;;;25.83;11.77;;;8.00;85.10;;;;;;5039861;28;20201;-85
2021/12/19 00:38:30;;;;;;;28.38;10.93;;;7.90;85.40;;;;;;5042548;28;20204;-85
2021/12/19 00:40:57;;;;;;;29.42;12.38;;;7.80;85.50;;;;;;5034917;28;20651;-84
2021/12/19 00:46:24;;;;;;;27.45;11.32;;;7.50;86.10;;;;;;5023036;28;20202;-84
2021/12/19 00:48:55;;;;;;;25.27;10.25;;;7.60;86.70;;;;;;5022871;28;20530;-86
2021/12/19 00:51:24;;;;;;;30.70;11.25;;;7.50;86.50;;;;;;5025326;28;20218;-85
2021/12/19 00:53:51;;;;;;;29.55;10.95;;;7.30;87.60;;;;;;5039488;28;20213;-85
2021/12/19 00:56:17;;;;;;;29.98;12.77;;;7.20;87.40;;;;;;5034530;28;20200;-85
2021/12/19 00:58:44;;;;;;;23.40;12.30;;;7.50;87.70;;;;;;5024097;28;20198;-85
2021/12/19 01:01:11;;;;;;;31.38;11.60;;;7.60;87.50;;;;;;5025370;28;20948;-85
2021/12/19 01:03:38;;;;;;;29.90;12.90;;;7.60;88.20;;;;;;5022287;28;20254;-85
2021/12/19 01:06:05;;;;;;;31.10;13.18;;;7.60;87.50;;;;;;5022797;28;20277;-85
2021/12/19 01:08:31;;;;;;;25.25;11.68;;;7.90;87.60;;;;;;5022036;28;20189;-85
2021/12/19 01:10:57;;;;;;;24.20;11.70;;;8.10;87.20;;;;;;5022733;28;20246;-85
2021/12/19 01:13:23;;;;;;;27.80;11.43;;;8.20;86.80;;;;;;5024951;28;20505;-86
2021/12/19 01:15:50;;;;;;;27.87;11.70;;;8.40;85.90;;;;;;5026632;28;20210;-85
2021/12/19 01:18:16;;;;;;;32.42;12.35;;;8.50;85.10;;;;;;5024306;28;20417;-85
2021/12/19 01:20:42;;;;;;;26.53;12.37;;;8.60;84.60;;;;;;5035374;28;20637;-85
2021/12/19 01:23:09;;;;;;;23.20;10.68;;;8.60;84.30;;;;;;5035972;28;20421;-85
2021/12/19 01:25:35;;;;;;;29.52;11.45;;;8.80;83.90;;;;;;5049954;28;20230;-85
2021/12/19 01:28:02;;;;;;;28.98;12.77;;;8.80;83.30;;;;;;5054156;28;20174;-85
2021/12/19 01:30:27;;;;;;;30.15;13.20;;;8.80;82.80;;;;;;5042467;28;20272;-85
2021/12/19 01:32:53;;;;;;;28.77;12.27;;;8.70;82.80;;;;;;5042247;28;20311;-86
2021/12/19 01:35:21;;;;;;;36.63;14.82;;;8.30;83.20;;;;;;5049677;28;20210;-85
2021/12/19 01:37:47;;;;;;;30.38;13.35;;;8.10;84.00;;;;;;5053321;28;20182;-85
2021/12/19 01:40:15;;;;;;;27.97;12.33;;;7.90;84.70;;;;;;5037213;28;20265;-85
2021/12/19 01:42:42;;;;;;;26.42;11.60;;;7.80;85.40;;;;;;5027088;28;20425;-86
2021/12/19 01:45:11;;;;;;;29.70;12.77;;;7.90;85.90;;;;;;5022060;28;20190;-86
2021/12/19 01:47:37;;;;;;;30.55;13.00;;;7.90;86.10;;;;;;5020412;28;20181;-86
2021/12/19 01:50:05;;;;;;;30.60;13.18;;;7.80;86.30;;;;;;5029808;28;20179;-85
2021/12/19 01:52:30;;;;;;;30.70;13.70;;;7.70;86.60;;;;;;5020871;28;20542;-86
2021/12/19 01:54:57;;;;;;;33.93;14.50;;;7.80;87.00;;;;;;5019918;28;20211;-86
2021/12/19 01:57:25;;;;;;;32.40;13.40;;;7.70;87.20;;;;;;5038226;28;20223;-86
2021/12/19 01:59:54;;;;;;;31.52;13.70;;;8.00;87.30;;;;;;5039413;28;20182;-86
2021/12/19 02:02:21;;;;;;;31.02;12.80;;;8.10;87.30;;;;;;5021905;28;20189;-86
2021/12/19 02:04:47;;;;;;;40.63;14.80;;;8.20;87.10;;;;;;5035787;28;20230;-85
2021/12/19 02:07:13;;;;;;;40.67;16.75;;;8.10;86.80;;;;;;5026893;28;20241;-85
2021/12/19 02:09:42;;;;;;;45.70;16.88;;;7.90;86.80;;;;;;5031376;28;20239;-86
2021/12/19 02:12:09;;;;;;;37.33;15.98;;;7.90;86.90;;;;;;5041048;28;20181;-85
2021/12/19 02:14:35;;;;;;;45.13;17.50;;;7.90;87.00;;;;;;5039841;28;20224;-86
2021/12/19 02:17:01;;;;;;;41.67;17.95;;;8.00;86.90;;;;;;5041500;28;20219;-85
2021/12/19 02:19:30;;;;;;;39.50;17.38;;;8.10;87.00;;;;;;5052024;28;20166;-83
2021/12/19 02:21:56;;;;;;;38.33;15.55;;;8.10;86.80;;;;;;5056739;28;20173;-83
2021/12/19 02:24:21;;;;;;;37.90;13.87;;;7.90;87.50;;;;;;5055238;28;20241;-83
2021/12/19 02:26:47;;;;;;;28.20;9.90;;;7.90;87.00;;;;;;5056047;28;20162;-84
2021/12/19 05:30:48;;;;;;;104.80;29.13;;;7.40;91.00;;;;;;5870765;22;20726;-85
2021/12/19 05:33:15;;;;;;;84.75;30.15;;;7.50;91.30;;;;;;5024232;28;20218;-85
2021/12/19 05:46:35;;;;;;;101.78;30.38;;;7.30;91.60;;;;;;5020810;28;20516;-84
2021/12/19 05:49:03;;;;;;;82.87;27.60;;;7.40;91.70;;;;;;5006871;28;20191;-85
2021/12/19 05:51:29;;;;;;;101.05;27.70;;;7.60;91.70;;;;;;5013812;28;20460;-85
2021/12/19 05:53:54;;;;;;;86.40;30.33;;;7.60;91.60;;;;;;5006210;28;20187;-84
2021/12/19 05:56:20;;;;;;;92.57;28.67;;;7.60;91.50;;;;;;5015426;28;20190;-84
2021/12/19 05:58:46;;;;;;;96.20;26.75;;;7.50;91.50;;;;;;5018808;28;20401;-84
2021/12/19 06:01:12;;;;;;;76.20;25.70;;;7.70;91.50;;;;;;5035402;28;20236;-84
2021/12/19 06:03:38;;;;;;;100.47;26.20;;;7.60;91.20;;;;;;5037703;28;20437;-83
2021/12/19 06:06:03;;;;;;;91.87;25.70;;;7.60;91.20;;;;;;5020947;28;20187;-83
2021/12/19 06:08:29;;;;;;;89.57;25.83;;;7.50;91.00;;;;;;5020685;28;20202;-83
2021/12/19 06:10:55;;;;;;;88.70;26.77;;;7.40;91.20;;;;;;5016448;28;20266;-85
2021/12/19 06:13:21;;;;;;;86.03;24.13;;;7.40;91.30;;;;;;5024727;28;20185;-84
2021/12/19 06:15:50;;;;;;;88.73;23.03;;;7.40;91.30;;;;;;5008717;28;20210;-84
2021/12/19 06:18:16;;;;;;;71.70;21.75;;;7.40;91.40;;;;;;5008321;28;20531;-84
2021/12/19 06:20:42;;;;;;;81.32;22.58;;;7.50;91.40;;;;;;5025588;28;20202;-84
2021/12/19 06:23:09;;;;;;;66.03;23.00;;;7.60;91.30;;;;;;5023961;28;20198;-84
2021/12/19 06:25:35;;;;;;;77.85;22.13;;;7.70;91.20;;;;;;5027693;28;20425;-84
2021/12/19 06:28:02;;;;;;;84.63;22.48;;;7.70;91.00;;;;;;5016738;28;20190;-84
2021/12/19 06:30:28;;;;;;;81.28;21.30;;;7.60;90.70;;;;;;5017657;28;20190;-84
2021/12/19 06:32:54;;;;;;;64.85;19.38;;;7.60;90.60;;;;;;5031869;28;20218;-84
2021/12/19 06:35:22;;;;;;;67.30;21.07;;;7.60;90.60;;;;;;5015024;28;20209;-84
2021/12/19 06:37:49;;;;;;;65.55;19.35;;;7.60;90.50;;;;;;5013241;28;20186;-84
2021/12/19 06:40:23;;;;;;;69.63;20.73;;;7.60;90.50;;;;;;5005614;28;20179;-84
2021/12/19 06:42:48;;;;;;;61.80;19.25;;;7.50;90.50;;;;;;5023499;28;20197;-84
2021/12/19 06:45:15;;;;;;;74.07;18.93;;;7.60;90.50;;;;;;5023044;28;20217;-83
2021/12/19 06:47:41;;;;;;;64.57;18.25;;;7.70;90.50;;;;;;5005638;28;20429;-84
2021/12/19 06:50:08;;;;;;;80.10;22.87;;;7.70;90.50;;;;;;5005202;28;20191;-83
2021/12/19 06:52:35;;;;;;;79.30;20.55;;;7.70;90.40;;;;;;5013863;28;20197;-83
2021/12/19 06:55:01;;;;;;;72.85;19.75;;;7.80;90.30;;;;;;5004954;28;20198;-83
2021/12/19 06:57:27;;;;;;;70.90;18.90;;;7.80;90.20;;;;;;5005066;28;20677;-83
2021/12/19 06:59:53;;;;;;;67.90;20.20;;;7.70;90.20;;;;;;5022494;28;20237;-83
2021/12/19 07:02:19;;;;;;;70.20;20.83;;;7.60;90.20;;;;;;5020993;28;20206;-84
2021/12/19 07:04:45;;;;;;;78.15;20.88;;;7.90;90.30;;;;;;5020841;28;20876;-84
2021/12/19 07:07:11;;;;;;;64.65;21.25;;;7.80;90.00;;;;;;5020119;28;20190;-84
2021/12/19 07:09:38;;;;;;;62.40;18.55;;;7.70;90.00;;;;;;5002111;28;20182;-84
2021/12/19 07:12:05;;;;;;;56.35;20.05;;;7.70;90.00;;;;;;5002219;28;20210;-84
2021/12/19 07:14:30;;;;;;;54.05;17.05;;;7.80;90.00;;;;;;5002359;28;20202;-84
2021/12/19 07:16:56;;;;;;;58.90;18.20;;;7.90;90.00;;;;;;5021192;28;20187;-84
2021/12/19 07:19:22;;;;;;;75.53;20.47;;;7.80;89.90;;;;;;5022523;28;20183;-84
2021/12/19 07:21:47;;;;;;;67.33;20.83;;;7.80;89.90;;;;;;5021888;28;20194;-84
2021/12/19 07:24:13;;;;;;;55.77;20.23;;;7.90;89.90;;;;;;5021077;28;20644;-84
2021/12/19 07:26:39;;;;;;;69.00;18.57;;;8.00;89.80;;;;;;5002923;28;20189;-84
2021/12/19 07:29:05;;;;;;;52.57;17.50;;;8.00;89.60;;;;;;5003249;28;20437;-84
2021/12/19 07:31:33;;;;;;;58.03;19.47;;;8.00;89.50;;;;;;5001685;28;20464;-85
2021/12/19 07:33:59;;;;;;;68.57;18.38;;;8.00;89.40;;;;;;5000377;28;20269;-85
2021/12/19 07:36:29;;;;;;;61.87;17.83;;;8.00;89.30;;;;;;5001287;28;20603;-84
2021/12/19 07:39:06;;;;;;;53.05;19.27;;;8.00;89.20;;;;;;5002397;28;20273;-85
2021/12/19 07:41:31;;;;;;;55.15;19.20;;;8.00;89.90;;;;;;5002077;28;20620;-85
2021/12/19 07:43:57;;;;;;;62.13;19.80;;;8.00;89.20;;;;;;5003375;28;20225;-84
2021/12/19 07:46:23;;;;;;;79.17;20.77;;;8.00;89.20;;;;;;5002252;28;20190;-84
2021/12/19 07:48:48;;;;;;;56.17;18.33;;;8.00;89.20;;;;;;5019910;28;20190;-84
2021/12/19 07:51:14;;;;;;;51.73;18.87;;;8.10;89.20;;;;;;5020844;28;20213;-84
2021/12/19 07:53:40;;;;;;;48.70;18.63;;;8.00;89.00;;;;;;5002642;28;20605;-84
2021/12/19 07:56:06;;;;;;;73.97;19.77;;;7.90;89.00;;;;;;5021748;28;20476;-84
2021/12/19 07:58:32;;;;;;;54.53;20.00;;;7.90;89.10;;;;;;5003337;28;20376;-85
2021/12/19 08:00:57;;;;;;;41.80;15.13;;;7.80;89.10;;;;;;5003288;28;20201;-84
2021/12/19 08:03:23;;;;;;;54.37;18.33;;;7.80;89.20;;;;;;5006328;28;20781;-84
2021/12/19 08:05:50;;;;;;;52.37;15.27;;;7.90;89.30;;;;;;5005909;28;20433;-84
2021/12/19 08:08:21;;;;;;;42.15;15.13;;;7.90;89.30;;;;;;5005807;28;20273;-85
2021/12/19 08:13:13;;;;;;;52.25;16.27;;;8.00;89.20;;;;;;5022074;28;20193;-85
2021/12/19 08:15:39;;;;;;;42.28;16.52;;;8.00;89.30;;;;;;5005438;28;20202;-85
2021/12/19 08:18:06;;;;;;;40.43;16.30;;;8.00;89.20;;;;;;5006794;28;20232;-83
2021/12/19 08:20:32;;;;;;;46.20;17.17;;;8.10;89.20;;;;;;5005815;28;20194;-85
2021/12/19 08:22:58;;;;;;;54.00;16.73;;;8.10;89.90;;;;;;5022406;28;20649;-84
2021/12/19 08:25:26;;;;;;;47.83;16.57;;;8.10;89.20;;;;;;5021956;28;20270;-85
2021/12/19 08:27:52;;;;;;;53.53;20.13;;;8.20;89.10;;;;;;5004988;28;20457;-85
2021/12/19 08:30:20;;;;;;;47.97;17.23;;;8.10;89.00;;;;;;5021961;28;20186;-84
2021/12/19 08:32:47;;;;;;;50.38;17.88;;;8.20;88.90;;;;;;5004999;28;20214;-84
2021/12/19 08:35:13;;;;;;;37.00;16.30;;;8.20;88.80;;;;;;5005241;28;20210;-84
2021/12/19 08:37:42;;;;;;;38.75;15.90;;;8.10;88.80;;;;;;5005795;28;20208;-85
2021/12/19 08:40:11;;;;;;;43.83;17.25;;;8.10;88.90;;;;;;5005940;28;20191;-84
2021/12/19 08:42:38;;;;;;;38.60;16.30;;;8.10;88.90;;;;;;5006945;28;20170;-84
2021/12/19 08:45:05;;;;;;;31.10;14.80;;;8.10;89.00;;;;;;5007452;28;20586;-86
2021/12/19 08:47:31;;;;;;;34.72;15.48;;;8.10;89.10;;;;;;5004871;28;20187;-86
2021/12/19 08:49:57;;;;;;;38.63;14.95;;;8.10;89.20;;;;;;5004742;28;20190;-85
2021/12/19 08:52:23;;;;;;;38.60;15.20;;;8.10;89.10;;;;;;4986774;28;20747;-86
2021/12/19 08:54:48;;;;;;;32.83;14.80;;;8.20;89.10;;;;;;5005695;28;20217;-86
2021/12/19 08:57:14;;;;;;;38.67;14.47;;;8.30;89.10;;;;;;5003396;28;20178;-81
2021/12/19 08:59:42;;;;;;;47.87;14.77;;;8.20;88.90;;;;;;5002379;28;20179;-81
2021/12/19 09:02:08;;;;;;;31.33;14.70;;;8.20;88.90;;;;;;5001072;28;20455;-81
2021/12/19 09:04:34;;;;;;;28.52;13.68;;;8.40;89.10;;;;;;5004612;28;20191;-82
2021/12/19 09:07:00;;;;;;;32.53;14.57;;;8.40;88.80;;;;;;5003639;28;20187;-80
2021/12/19 09:09:27;;;;;;;34.47;14.05;;;8.60;88.80;;;;;;5003322;28;20436;-80
2021/12/19 09:11:52;;;;;;;34.35;15.40;;;8.70;88.70;;;;;;5020486;28;20608;-81
2021/12/19 09:14:18;;;;;;;26.73;13.07;;;8.50;88.20;;;;;;5003710;28;20199;-81
2021/12/19 09:16:44;;;;;;;26.70;12.95;;;8.30;88.00;;;;;;5004752;28;20178;-81
2021/12/19 09:19:12;;;;;;;27.98;12.05;;;8.10;88.10;;;;;;5005671;28;20270;-81
2021/12/19 09:21:37;;;;;;;31.73;13.63;;;8.30;89.10;;;;;;5004070;28;20202;-81
2021/12/19 09:24:04;;;;;;;28.03;13.47;;;8.40;88.40;;;;;;5021600;28;20246;-80
2021/12/19 09:26:30;;;;;;;23.70;13.32;;;8.60;88.20;;;;;;5003228;28;20484;-82
2021/12/19 09:28:55;;;;;;;28.37;12.50;;;8.80;88.10;;;;;;5004439;28;20190;-81
2021/12/19 09:31:24;;;;;;;24.17;11.13;;;8.80;87.80;;;;;;5001909;28;21025;-81
2021/12/19 09:33:50;;;;;;;23.25;12.38;;;8.90;87.70;;;;;;5019298;28;20198;-80
2021/12/19 09:36:16;;;;;;;29.47;12.40;;;8.90;87.40;;;;;;5019881;28;20209;-81
2021/12/19 09:38:43;;;;;;;27.70;13.30;;;8.90;87.20;;;;;;5002779;28;20418;-82
2021/12/19 09:41:14;;;;;;;24.23;11.65;;;9.00;87.00;;;;;;4986223;28;20202;-84
2021/12/19 09:43:44;;;;;;;23.02;11.45;;;8.80;86.50;;;;;;5002651;28;20202;-83
2021/12/19 09:46:18;;;;;;;23.05;10.15;;;8.90;86.50;;;;;;5002838;28;20178;-83
2021/12/19 09:48:46;;;;;;;17.08;10.05;;;9.00;86.40;;;;;;4985292;28;20560;-82
2021/12/19 09:51:13;;;;;;;13.35;8.18;;;9.10;86.20;;;;;;4999394;28;20198;-83
2021/12/19 09:53:40;;;;;;;20.95;10.02;;;9.20;85.80;;;;;;4998271;28;20183;-80
2021/12/19 09:56:07;;;;;;;17.02;9.85;;;9.20;85.40;;;;;;5016705;28;20700;-82
2021/12/19 09:58:34;;;;;;;19.20;9.82;;;9.10;85.30;;;;;;5000758;28;20199;-80
2021/12/19 10:01:03;;;;;;;22.48;11.98;;;9.10;85.40;;;;;;5000133;28;20225;-80
2021/12/19 10:03:28;;;;;;;24.60;11.23;;;9.10;85.40;;;;;;5019800;28;20198;-80
2021/12/19 10:06:21;;;;;;;19.17;10.17;;;9.00;85.50;;;;;;5020594;28;20197;-80
2021/12/19 10:09:06;;;;;;;13.43;8.57;;;9.10;86.40;;;;;;4998617;28;20202;-81
2021/12/19 10:12:11;;;;;;;16.75;8.18;;;8.90;85.50;;;;;;5021062;28;21143;-81
2021/12/19 10:14:38;;;;;;;13.82;7.40;;;8.90;85.50;;;;;;5013201;28;20198;-79
2021/12/19 10:17:15;;;;;;;12.40;8.65;;;8.80;85.70;;;;;;5010513;28;20183;-81
2021/12/19 10:19:54;;;;;;;11.38;7.72;;;8.60;86.10;;;;;;5016361;28;20182;-81
2021/12/19 10:22:23;;;;;;;13.38;8.55;;;8.50;86.80;;;;;;4999918;28;20218;-81
2021/12/19 10:24:49;;;;;;;17.15;9.40;;;8.50;87.20;;;;;;5003739;28;20182;-81
2021/12/19 10:27:40;;;;;;;11.53;8.03;;;8.50;87.20;;;;;;5001704;28;20183;-81
2021/12/19 10:30:36;;;;;;;10.40;6.40;;;8.60;87.30;;;;;;5019177;28;20463;-82
2021/12/19 10:33:04;;;;;;;9.63;6.28;;;8.80;86.60;;;;;;5016984;28;20186;-80
2021/12/19 10:35:33;;;;;;;10.05;6.63;;;8.70;86.50;;;;;;4999408;28;20268;-80
2021/12/19 10:38:02;;;;;;;11.68;7.60;;;8.50;87.50;;;;;;5017650;28;20181;-80
2021/12/19 10:40:28;;;;;;;14.25;8.63;;;8.50;87.20;;;;;;5001129;28;20253;-81
2021/12/19 10:43:00;;;;;;;15.55;8.88;;;8.60;87.50;;;;;;5000600;28;20187;-80
2021/12/19 10:45:42;;;;;;;14.95;8.55;;;8.50;87.60;;;;;;5003657;28;20182;-80
2021/12/19 10:48:14;;;;;;;12.18;8.38;;;8.40;87.70;;;;;;5004766;28;20550;-80
2021/12/19 10:50:49;;;;;;;15.75;8.75;;;8.40;88.00;;;;;;5017801;28;20233;-80
2021/12/19 10:53:16;;;;;;;10.05;6.32;;;8.50;88.10;;;;;;5016340;28;20174;-82
2021/12/19 10:55:45;;;;;;;11.63;5.95;;;8.60;87.80;;;;;;5015012;28;20280;-81
2021/12/19 10:58:32;;;;;;;6.22;4.60;;;8.50;87.60;;;;;;5001770;28;20193;-81
2021/12/19 11:01:04;;;;;;;6.70;4.32;;;8.70;87.50;;;;;;5002400;28;20230;-83
2021/12/19 11:03:34;;;;;;;7.75;3.97;;;8.60;87.20;;;;;;5002905;28;20197;-81
2021/12/19 11:05:59;;;;;;;7.10;4.60;;;8.70;87.20;;;;;;5002980;28;20661;-81
2021/12/19 11:08:31;;;;;;;4.93;3.23;;;8.60;87.50;;;;;;5001489;28;20182;-81
2021/12/19 11:10:57;;;;;;;4.90;4.40;;;8.80;87.30;;;;;;5001013;28;20203;-81
2021/12/19 11:13:24;;;;;;;3.40;3.03;;;9.00;86.30;;;;;;5001352;28;20228;-81
2021/12/19 11:15:50;;;;;;;3.15;2.85;;;9.20;85.80;;;;;;5025762;28;20194;-81
2021/12/19 11:18:16;;;;;;;4.07;3.10;;;9.30;85.10;;;;;;5012872;28;20185;-81
2021/12/19 11:20:42;;;;;;;5.20;4.00;;;9.30;84.40;;;;;;5014473;28;20222;-81
2021/12/19 11:23:08;;;;;;;5.23;3.83;;;9.10;84.20;;;;;;5013675;28;20429;-80
2021/12/19 11:25:36;;;;;;;8.45;3.65;;;9.00;84.20;;;;;;5013546;28;20464;-81
2021/12/19 11:28:02;;;;;;;4.35;3.95;;;8.90;84.40;;;;;;4996886;28;20190;-81
2021/12/19 11:30:28;;;;;;;5.75;4.78;;;8.80;84.70;;;;;;5006793;28;20669;-81
2021/12/19 11:33:21;;;;;;;9.07;6.18;;;8.80;85.00;;;;;;5001858;28;20202;-81
2021/12/19 11:35:50;;;;;;;9.63;4.95;;;8.80;85.30;;;;;;5021791;28;20221;-81
2021/12/19 11:38:21;;;;;;;12.27;7.57;;;8.70;85.50;;;;;;4991707;28;20195;-81
2021/12/19 11:40:48;;;;;;;14.93;8.63;;;8.70;85.70;;;;;;5005613;28;20293;-82
2021/12/19 11:43:14;;;;;;;18.30;9.27;;;8.70;86.00;;;;;;5005480;28;20188;-81
2021/12/19 11:45:53;;;;;;;17.40;10.45;;;8.80;86.10;;;;;;5023231;28;20183;-82
2021/12/19 11:48:30;;;;;;;14.75;8.48;;;8.70;86.10;;;;;;5005257;28;20194;-81
2021/12/19 11:51:00;;;;;;;16.23;10.27;;;9.00;86.00;;;;;;5005214;28;20292;-81
2021/12/19 11:53:30;;;;;;;20.77;10.40;;;9.20;85.50;;;;;;5004617;28;20206;-80
2021/12/19 11:56:17;;;;;;;20.17;11.20;;;9.10;85.10;;;;;;5002828;28;20206;-81
2021/12/19 11:58:51;;;;;;;16.00;9.43;;;8.90;85.20;;;;;;5021413;28;20190;-81
2021/12/19 12:01:19;;;;;;;14.07;9.90;;;8.80;85.40;;;;;;5020744;28;20245;-81
2021/12/19 12:04:23;;;;;;;15.13;9.95;;;8.90;85.60;;;;;;5002526;28;20178;-82
2021/12/19 12:07:11;;;;;;;14.57;8.80;;;8.90;85.70;;;;;;4925153;29;20184;-81
2021/12/19 12:09:40;;;;;;;14.00;9.20;;;8.70;86.10;;;;;;4999123;28;20189;-80
2021/12/19 12:12:11;;;;;;;13.88;9.25;;;8.90;86.50;;;;;;5000264;28;20241;-81
2021/12/19 12:14:42;;;;;;;17.85;9.93;;;9.10;86.30;;;;;;5000830;28;20677;-82
2021/12/19 12:17:15;;;;;;;11.55;7.25;;;9.20;85.90;;;;;;5016153;28;20623;-82
2021/12/19 12:19:51;;;;;;;11.95;6.80;;;9.00;85.80;;;;;;5018525;28;20175;-82
2021/12/19 12:22:29;;;;;;;13.23;8.60;;;8.90;85.60;;;;;;5002365;28;20218;-81
2021/12/19 12:25:15;;;;;;;12.45;7.70;;;8.80;86.10;;;;;;5002131;28;20183;-82
2021/12/19 12:27:48;;;;;;;11.00;6.28;;;8.80;86.20;;;;;;5023677;28;20543;-81
2021/12/19 12:30:17;;;;;;;9.40;6.68;;;8.70;86.20;;;;;;5002905;28;20178;-82
2021/12/19 12:32:44;;;;;;;12.45;7.00;;;8.70;86.50;;;;;;5001965;28;20193;-82
2021/12/19 12:35:11;;;;;;;8.05;6.40;;;8.70;86.70;;;;;;5014944;28;20199;-82
2021/12/19 12:37:40;;;;;;;9.52;6.35;;;8.80;86.70;;;;;;5020748;28;20248;-81
2021/12/19 12:40:45;;;;;;;11.40;6.50;;;8.80;86.40;;;;;;5020369;28;20179;-81
2021/12/19 12:43:14;;;;;;;14.50;8.38;;;8.90;86.70;;;;;;5002554;28;20232;-81
2021/12/19 12:46:02;;;;;;;12.23;7.80;;;8.80;86.70;;;;;;5003549;28;20195;-80
2021/12/19 12:48:29;;;;;;;8.32;6.28;;;8.90;87.00;;;;;;4987117;28;20225;-81
2021/12/19 12:50:56;;;;;;;12.35;8.30;;;8.70;87.10;;;;;;5001787;28;20285;-81
2021/12/19 12:53:49;;;;;;;12.55;7.78;;;8.90;87.30;;;;;;5004711;28;20174;-81
2021/12/19 12:56:22;;;;;;;18.08;9.18;;;8.80;87.40;;;;;;4999883;28;20206;-81
2021/12/19 12:58:51;;;;;;;12.05;9.60;;;8.70;87.70;;;;;;5004484;28;20205;-80
2021/12/19 13:01:24;;;;;;;18.58;9.32;;;8.80;87.90;;;;;;5003074;28;20206;-82
2021/12/19 13:04:01;;;;;;;13.23;8.95;;;8.90;87.90;;;;;;5030697;28;20209;-81
2021/12/19 13:06:42;;;;;;;15.40;8.63;;;8.80;87.50;;;;;;5021490;28;20189;-81
2021/12/19 13:09:11;;;;;;;13.57;11.20;;;8.70;87.70;;;;;;5003522;28;20724;-80
2021/12/19 13:11:37;;;;;;;11.98;8.85;;;9.10;87.80;;;;;;5020906;28;20273;-81
2021/12/19 13:14:26;;;;;;;14.93;9.70;;;8.90;87.40;;;;;;5003566;28;20213;-81
2021/12/19 13:17:10;;;;;;;15.15;11.57;;;9.00;87.10;;;;;;4999706;28;20433;-81
2021/12/19 13:19:46;;;;;;;14.95;9.40;;;9.20;87.10;;;;;;4998412;28;20170;-81
2021/12/19 13:22:16;;;;;;;14.05;9.05;;;9.00;86.80;;;;;;4999897;28;20190;-80
2021/12/19 13:24:43;;;;;;;13.75;9.38;;;9.00;86.70;;;;;;5002861;28;20194;-81
2021/12/19 13:27:12;;;;;;;15.75;9.73;;;8.90;86.70;;;;;;5002654;28;20234;-82
2021/12/19 13:29:39;;;;;;;14.13;10.57;;;9.00;86.70;;;;;;5021700;28;20186;-80
2021/12/19 13:32:37;;;;;;;14.60;8.65;;;8.80;86.70;;;;;;5004028;28;20674;-80
2021/12/19 13:35:07;;;;;;;12.05;7.30;;;8.70;86.80;;;;;;5002280;28;20206;-83
2021/12/19 13:37:34;;;;;;;13.90;8.77;;;9.00;86.80;;;;;;5019970;28;20182;-81
2021/12/19 13:40:13;;;;;;;11.48;8.15;;;9.10;86.40;;;;;;5020908;28;20175;-81
2021/12/19 13:42:46;;;;;;;12.45;8.25;;;9.10;86.00;;;;;;5001764;28;20669;-81
2021/12/19 13:45:20;;;;;;;11.88;9.35;;;8.90;85.80;;;;;;5025217;28;20193;-81
2021/12/19 13:47:47;;;;;;;9.43;8.35;;;9.10;85.50;;;;;;5003128;28;20178;-81
2021/12/19 13:50:14;;;;;;;13.15;9.15;;;9.20;85.00;;;;;;5003935;28;20182;-82
2021/12/19 13:52:40;;;;;;;14.35;9.00;;;9.20;84.80;;;;;;5001189;28;20194;-81
2021/12/19 13:55:11;;;;;;;11.93;8.63;;;9.10;84.80;;;;;;5002137;28;20572;-80
2021/12/19 13:57:36;;;;;;;14.35;8.70;;;9.00;84.50;;;;;;5002563;28;20205;-81
2021/12/19 14:00:07;;;;;;;15.33;8.40;;;9.10;84.70;;;;;;5001814;28;20191;-82
2021/12/19 14:02:38;;;;;;;11.77;8.70;;;9.00;84.60;;;;;;5000543;28;20409;-82
2021/12/19 14:05:24;;;;;;;13.65;8.50;;;9.00;84.80;;;;;;5002807;28;20198;-82
2021/12/19 14:07:50;;;;;;;15.70;9.13;;;9.00;84.90;;;;;;5001960;28;20185;-81
2021/12/19 14:10:23;;;;;;;15.30;9.23;;;9.20;84.50;;;;;;5001591;28;20190;-81
2021/12/19 14:13:05;;;;;;;9.68;8.10;;;9.10;84.50;;;;;;5000451;28;20429;-81
2021/12/19 14:15:32;;;;;;;19.45;9.07;;;9.10;84.30;;;;;;5002509;28;20198;-81
2021/12/19 14:17:57;;;;;;;12.57;9.00;;;9.20;84.20;;;;;;5002445;28;20186;-82
2021/12/19 14:20:35;;;;;;;20.00;9.07;;;9.20;84.10;;;;;;5006623;28;20194;-81
2021/12/19 14:23:17;;;;;;;14.38;8.23;;;9.40;83.70;;;;;;4984185;28;20178;-81
2021/12/19 14:25:44;;;;;;;12.02;8.20;;;9.30;83.00;;;;;;5002789;28;20264;-81
2021/12/19 14:28:30;;;;;;;14.98;8.15;;;9.10;82.90;;;;;;5002586;28;20185;-82
2021/12/19 14:31:04;;;;;;;12.68;8.82;;;9.10;83.40;;;;;;5018992;28;20644;-81
2021/12/19 14:33:41;;;;;;;19.63;9.25;;;9.10;83.60;;;;;;5003337;28;20186;-82
2021/12/19 14:36:10;;;;;;;14.77;8.75;;;9.00;83.60;;;;;;5003701;28;20224;-82
2021/12/19 14:38:40;;;;;;;14.48;9.63;;;8.90;83.90;;;;;;5002420;28;20175;-81
2021/12/19 14:41:08;;;;;;;13.65;8.75;;;8.80;84.20;;;;;;5001483;28;20201;-82
2021/12/19 14:43:35;;;;;;;11.85;7.53;;;9.00;84.30;;;;;;5002009;28;20217;-82
2021/12/19 14:46:04;;;;;;;12.32;6.90;;;8.80;84.40;;;;;;5019524;28;20501;-81
2021/12/19 14:48:35;;;;;;;15.85;8.05;;;8.70;85.20;;;;;;5002994;28;20552;-81
2021/12/19 14:51:23;;;;;;;9.93;7.30;;;8.70;85.60;;;;;;5002152;28;20198;-81
2021/12/19 14:53:58;;;;;;;14.80;7.32;;;8.70;85.90;;;;;;5002893;28;20182;-81
2021/12/19 14:56:26;;;;;;;9.90;6.90;;;8.70;86.10;;;;;;5002604;28;20601;-81
2021/12/19 14:59:00;;;;;;;14.05;8.63;;;8.70;86.00;;;;;;5020667;28;20233;-81
2021/12/19 15:01:46;;;;;;;19.52;9.55;;;8.70;86.00;;;;;;5002477;28;20202;-83
2021/12/19 15:04:12;;;;;;;19.58;11.25;;;8.60;86.00;;;;;;5004021;28;20174;-81
2021/12/19 15:06:44;;;;;;;18.77;11.65;;;8.70;85.90;;;;;;5023222;28;20185;-82
2021/12/19 15:09:16;;;;;;;16.80;11.15;;;8.70;85.20;;;;;;5007170;28;20186;-82
2021/12/19 15:11:43;;;;;;;18.75;10.52;;;8.70;85.20;;;;;;5023049;28;20202;-82
2021/12/19 15:14:10;;;;;;;20.85;9.43;;;8.80;85.10;;;;;;5007352;28;20190;-81
2021/12/19 15:16:36;;;;;;;18.88;9.80;;;9.10;84.90;;;;;;5025185;28;20293;-82
2021/12/19 15:19:07;;;;;;;13.48;7.82;;;9.00;84.50;;;;;;5024083;28;20246;-82
2021/12/19 15:21:34;;;;;;;16.15;8.05;;;8.90;84.60;;;;;;5004555;28;20265;-82
2021/12/19 15:24:00;;;;;;;15.98;8.90;;;8.90;85.00;;;;;;5003120;28;20185;-82
2021/12/19 15:26:26;;;;;;;19.98;9.75;;;8.80;85.10;;;;;;5004509;28;20600;-83
2021/12/19 15:28:53;;;;;;;14.15;9.15;;;8.90;85.30;;;;;;5023297;28;20203;-83
2021/12/19 15:31:22;;;;;;;20.70;10.30;;;8.80;84.70;;;;;;5018924;28;20243;-83
2021/12/19 15:33:50;;;;;;;18.80;10.18;;;8.90;84.30;;;;;;5001701;28;20171;-82
2021/12/19 15:36:17;;;;;;;25.10;11.48;;;9.00;84.10;;;;;;5001174;28;20209;-79
2021/12/19 15:38:43;;;;;;;18.35;10.25;;;9.00;84.10;;;;;;5001797;28;20175;-82
2021/12/19 15:41:09;;;;;;;19.83;11.53;;;8.80;84.10;;;;;;5000881;28;20199;-82
2021/12/19 15:43:34;;;;;;;17.25;11.05;;;8.90;84.40;;;;;;5019099;28;20418;-83
2021/12/19 15:46:00;;;;;;;19.20;11.13;;;8.90;84.20;;;;;;5001622;28;20190;-82
2021/12/19 15:48:26;;;;;;;16.10;10.07;;;8.90;84.30;;;;;;5003396;28;20640;-81
2021/12/19 15:50:52;;;;;;;20.25;8.20;;;8.70;84.20;;;;;;5018352;28;20226;-80
2021/12/19 15:53:18;;;;;;;13.55;7.68;;;8.80;83.50;;;;;;5001606;28;20686;-81
2021/12/19 15:55:45;;;;;;;20.83;8.30;;;8.70;83.20;;;;;;5003910;28;20238;-81
2021/12/19 15:58:11;;;;;;;13.50;7.00;;;8.90;83.00;;;;;;5002071;28;20421;-82
2021/12/19 16:00:43;;;;;;;20.75;8.38;;;8.80;82.40;;;;;;5011896;28;20222;-82
2021/12/19 16:03:09;;;;;;;10.27;5.43;;;8.80;82.10;;;;;;5011962;28;20185;-81
2021/12/19 16:05:34;;;;;;;9.53;5.83;;;8.70;81.60;;;;;;5009577;28;20214;-82
2021/12/19 16:08:01;;;;;;;10.40;6.30;;;8.70;82.10;;;;;;5001266;28;20429;-81
2021/12/19 16:10:27;;;;;;;13.02;5.32;;;8.90;82.10;;;;;;5000021;28;20614;-81
2021/12/19 16:12:52;;;;;;;12.10;5.72;;;8.80;81.20;;;;;;4998676;28;20593;-80
2021/12/19 16:15:20;;;;;;;9.07;5.00;;;8.80;81.00;;;;;;5015730;28;20333;-82